Time;durP1;ratioP1;P1;durP2;ratioP2;P2;SDS_P1;SDS_P2;PMS_P1;PMS_P2;Temp;Humidity;BMP_temperature;BMP_pressure;BME280_temperature;BME280_humidity;BME280_pressure;Samples;Min_cycle;Max_cycle;Signal;HPM_P1;HPM_P2
2021/08/02 00:00:51;;;;;;;5.00;0.60;;;13.50;99.90;;;;;;5064471;28;20383;-78
2021/08/02 00:03:40;;;;;;;4.05;0.82;;;13.50;99.90;;;;;;5062027;28;20044;-78
2021/08/02 00:06:08;;;;;;;5.22;1.00;;;13.50;99.90;;;;;;5058704;28;20036;-79
2021/08/02 00:08:34;;;;;;;5.95;1.42;;;13.60;99.90;;;;;;5061771;28;20523;-78
2021/08/02 00:11:01;;;;;;;2.63;0.90;;;13.50;99.90;;;;;;5062682;28;20043;-78
2021/08/02 00:13:30;;;;;;;4.00;1.00;;;13.60;99.90;;;;;;5065245;28;20047;-78
2021/08/02 00:16:02;;;;;;;3.38;0.90;;;13.60;99.90;;;;;;5065529;28;20046;-78
2021/08/02 00:18:29;;;;;;;4.53;0.88;;;13.60;99.90;;;;;;5063891;28;20123;-78
2021/08/02 00:20:59;;;;;;;2.50;1.02;;;13.60;99.90;;;;;;5063344;28;20096;-78
2021/08/02 00:23:26;;;;;;;6.30;1.15;;;13.60;99.90;;;;;;5062742;28;20055;-79
2021/08/02 00:25:54;;;;;;;2.05;0.80;;;13.60;99.90;;;;;;5063627;28;20029;-78
2021/08/02 00:28:21;;;;;;;4.68;0.63;;;13.60;99.90;;;;;;5063593;28;20044;-78
2021/08/02 00:30:47;;;;;;;2.60;1.20;;;13.60;99.90;;;;;;5063628;28;20496;-78
2021/08/02 00:33:13;;;;;;;8.30;1.20;;;13.60;99.90;;;;;;5063474;28;20044;-78
2021/08/02 00:35:52;;;;;;;4.60;1.08;;;13.60;99.90;;;;;;5063108;28;20036;-78
2021/08/02 00:38:28;;;;;;;6.05;1.23;;;13.50;99.90;;;;;;5061028;28;20085;-78
2021/08/02 00:41:13;;;;;;;3.72;1.40;;;13.60;99.90;;;;;;5063758;28;20040;-78
2021/08/02 00:43:54;;;;;;;8.20;0.88;;;13.50;99.90;;;;;;5062693;28;20045;-79
2021/08/02 00:46:25;;;;;;;5.95;1.05;;;13.60;99.90;;;;;;5064275;28;20432;-78
2021/08/02 00:49:01;;;;;;;6.20;1.17;;;13.60;99.90;;;;;;5062274;28;20040;-78
2021/08/02 00:51:27;;;;;;;;;;;13.60;99.90;;;;;;5061764;28;20040;-78
2021/08/02 00:53:59;;;;;;;2.75;0.88;;;13.60;99.90;;;;;;5061703;28;19981;-79
2021/08/02 00:56:29;;;;;;;7.25;0.80;;;13.60;99.90;;;;;;5064070;28;20037;-79
2021/08/02 00:58:55;;;;;;;2.65;1.00;;;13.60;99.90;;;;;;5063939;28;20094;-78
2021/08/02 01:01:22;;;;;;;4.68;0.90;;;13.60;99.90;;;;;;5063530;28;20078;-78
2021/08/02 01:03:47;;;;;;;2.17;0.52;;;13.60;99.90;;;;;;5063229;28;20037;-78
2021/08/02 01:06:15;;;;;;;3.50;0.68;;;13.60;99.90;;;;;;5061900;28;20046;-78
2021/08/02 01:08:47;;;;;;;5.57;0.80;;;13.60;99.90;;;;;;5063778;28;20060;-78
2021/08/02 01:11:16;;;;;;;5.28;1.33;;;13.60;99.90;;;;;;5060429;28;20036;-78
2021/08/02 01:13:43;;;;;;;3.08;0.90;;;13.70;99.90;;;;;;5063331;28;20028;-79
2021/08/02 01:16:10;;;;;;;6.07;1.00;;;13.70;99.90;;;;;;5060990;28;20824;-79
2021/08/02 01:18:38;;;;;;;3.83;1.52;;;13.70;99.90;;;;;;5061651;28;20028;-78
2021/08/02 01:21:08;;;;;;;8.77;0.88;;;13.70;99.90;;;;;;5061716;28;20035;-78
2021/08/02 01:23:36;;;;;;;6.25;0.90;;;13.70;99.90;;;;;;5064029;28;20032;-78
2021/08/02 01:26:04;;;;;;;4.45;0.70;;;13.80;99.90;;;;;;5062444;28;20028;-78
2021/08/02 01:28:30;;;;;;;5.57;0.90;;;13.70;99.90;;;;;;5063946;28;20174;-79
2021/08/02 01:30:58;;;;;;;7.78;0.88;;;13.80;99.90;;;;;;5061820;28;20497;-79
2021/08/02 01:33:32;;;;;;;4.85;0.70;;;13.80;99.90;;;;;;5061766;28;20036;-79
2021/08/02 01:35:59;;;;;;;3.72;1.00;;;13.80;99.90;;;;;;5064999;28;20486;-79
2021/08/02 01:38:25;;;;;;;7.03;1.20;;;13.80;99.90;;;;;;5066626;28;20033;-79
2021/08/02 01:40:52;;;;;;;5.63;0.82;;;13.80;99.90;;;;;;5066535;28;20059;-79
2021/08/02 01:43:18;;;;;;;9.45;2.22;;;13.80;99.90;;;;;;5067385;28;20037;-79
2021/08/02 01:45:59;;;;;;;6.50;1.27;;;13.80;99.90;;;;;;5065551;28;20032;-79
2021/08/02 01:48:41;;;;;;;3.78;0.85;;;13.80;99.90;;;;;;5067783;28;20048;-79
2021/08/02 01:51:20;;;;;;;2.55;0.70;;;13.80;99.90;;;;;;5065653;28;20137;-79
2021/08/02 01:54:11;;;;;;;5.35;1.00;;;13.80;99.90;;;;;;5068283;28;20032;-79
2021/08/02 01:56:49;;;;;;;5.10;0.93;;;13.80;99.90;;;;;;5066305;28;20063;-79
2021/08/02 01:59:18;;;;;;;4.13;0.75;;;13.80;99.90;;;;;;5064275;28;20036;-79
2021/08/02 02:01:57;;;;;;;6.50;0.98;;;13.80;99.90;;;;;;5064949;28;20131;-79
2021/08/02 02:04:32;;;;;;;9.82;1.35;;;13.80;99.90;;;;;;5067383;28;20182;-79
2021/08/02 02:07:00;;;;;;;5.82;1.00;;;13.70;99.90;;;;;;5062344;28;20037;-79
2021/08/02 02:09:29;;;;;;;6.40;1.27;;;13.70;99.90;;;;;;5067222;28;20032;-79
2021/08/02 02:11:57;;;;;;;5.22;1.00;;;13.70;99.90;;;;;;5065521;28;20044;-79
2021/08/02 02:14:26;;;;;;;6.03;1.17;;;13.70;99.90;;;;;;5065385;28;20044;-79
2021/08/02 02:16:55;;;;;;;4.82;1.00;;;13.70;99.90;;;;;;5065679;28;20044;-79
2021/08/02 02:19:23;;;;;;;5.07;0.77;;;13.70;99.90;;;;;;5066272;28;20048;-79
2021/08/02 02:21:52;;;;;;;4.55;0.77;;;13.70;99.90;;;;;;5067378;28;20036;-79
2021/08/02 02:24:18;;;;;;;5.60;0.70;;;13.70;99.90;;;;;;5065703;28;20494;-79
2021/08/02 02:26:46;;;;;;;5.53;0.77;;;13.60;99.90;;;;;;5069344;28;20115;-79
2021/08/02 02:29:14;;;;;;;4.03;0.73;;;13.60;99.90;;;;;;5067940;28;20051;-79
2021/08/02 02:31:42;;;;;;;6.03;1.15;;;13.60;99.90;;;;;;5067953;28;20074;-79
2021/08/02 02:34:10;;;;;;;5.25;0.90;;;13.60;99.90;;;;;;5069828;28;20098;-79
2021/08/02 02:36:38;;;;;;;3.80;0.80;;;13.50;99.90;;;;;;5066379;28;20044;-79
2021/08/02 02:39:04;;;;;;;5.07;1.05;;;13.50;99.90;;;;;;5067613;28;20047;-78
2021/08/02 02:41:31;;;;;;;8.07;1.08;;;13.50;99.90;;;;;;5068171;28;20036;-78
2021/08/02 02:43:58;;;;;;;5.32;1.00;;;13.50;99.90;;;;;;5066811;28;20041;-78
2021/08/02 02:46:25;;;;;;;10.50;1.30;;;13.40;99.90;;;;;;5066873;28;20033;-79
2021/08/02 02:48:53;;;;;;;6.32;1.10;;;13.40;99.90;;;;;;5066835;28;20041;-79
2021/08/02 02:51:20;;;;;;;4.88;0.80;;;13.40;99.90;;;;;;5070105;28;20040;-79
2021/08/02 02:53:47;;;;;;;6.45;1.00;;;13.40;99.90;;;;;;5068374;28;20505;-79
2021/08/02 02:56:16;;;;;;;4.05;1.10;;;13.40;99.90;;;;;;5068842;28;20083;-79
2021/08/02 02:58:42;;;;;;;4.82;0.90;;;13.40;99.90;;;;;;5062242;28;20123;-79
2021/08/02 03:01:09;;;;;;;6.28;1.10;;;13.40;99.90;;;;;;5064287;28;20075;-79
2021/08/02 03:03:37;;;;;;;6.68;1.08;;;13.40;99.90;;;;;;5070746;28;20048;-79
2021/08/02 03:06:05;;;;;;;4.45;0.85;;;13.40;99.90;;;;;;5067936;28;20071;-78
2021/08/02 03:08:34;;;;;;;6.22;1.38;;;13.30;99.90;;;;;;5064604;28;20127;-78
2021/08/02 03:11:02;;;;;;;5.65;1.08;;;13.30;99.90;;;;;;5068936;28;20033;-78
2021/08/02 03:13:28;;;;;;;4.45;1.10;;;13.20;99.90;;;;;;5068206;28;20037;-79
2021/08/02 03:15:53;;;;;;;3.00;1.13;;;13.20;99.90;;;;;;5069942;28;20032;-79
2021/08/02 03:18:19;;;;;;;9.52;1.33;;;13.20;99.90;;;;;;5068923;28;20036;-79
2021/08/02 03:20:45;;;;;;;6.28;1.08;;;13.20;99.90;;;;;;5069409;28;20054;-78
2021/08/02 03:23:18;;;;;;;5.63;1.60;;;13.10;99.90;;;;;;5066600;28;20044;-78
2021/08/02 03:25:49;;;;;;;4.55;1.13;;;13.10;99.90;;;;;;5064139;28;20691;-78
2021/08/02 03:28:33;;;;;;;5.22;0.98;;;13.10;99.90;;;;;;5068014;28;20048;-78
2021/08/02 03:31:04;;;;;;;3.55;0.80;;;13.10;99.90;;;;;;5063876;28;20036;-78
2021/08/02 03:33:37;;;;;;;3.78;1.00;;;13.00;99.90;;;;;;5065981;28;20041;-78
2021/08/02 03:36:07;;;;;;;6.95;1.10;;;13.10;99.90;;;;;;5066265;28;20067;-79
2021/08/02 03:38:35;;;;;;;3.60;1.13;;;13.00;99.90;;;;;;5066412;28;20036;-78
2021/08/02 03:41:04;;;;;;;4.40;1.08;;;13.00;99.90;;;;;;5063050;28;20056;-79
2021/08/02 03:43:32;;;;;;;3.80;1.10;;;13.00;99.90;;;;;;5065523;28;20051;-78
2021/08/02 03:45:58;;;;;;;4.57;1.00;;;12.90;99.90;;;;;;5068150;28;20482;-79
2021/08/02 03:48:25;;;;;;;3.95;0.80;;;12.90;99.90;;;;;;5066723;28;20049;-78
2021/08/02 03:50:51;;;;;;;7.70;1.50;;;12.90;99.90;;;;;;5068936;28;20584;-78
2021/08/02 03:53:17;;;;;;;5.00;1.33;;;12.90;99.90;;;;;;5065912;28;20044;-78
2021/08/02 03:55:44;;;;;;;7.53;1.25;;;12.80;99.90;;;;;;5067000;28;20111;-78
2021/08/02 03:58:10;;;;;;;3.08;1.00;;;12.80;99.90;;;;;;5065850;28;20028;-78
2021/08/02 04:00:36;;;;;;;4.70;1.35;;;12.80;99.90;;;;;;5063207;28;20067;-78
2021/08/02 04:03:04;;;;;;;4.63;1.45;;;12.80;99.90;;;;;;5068839;28;20041;-78
2021/08/02 04:05:30;;;;;;;8.80;1.67;;;12.70;99.90;;;;;;5066969;28;20050;-79
2021/08/02 04:07:58;;;;;;;5.38;1.52;;;12.70;99.90;;;;;;5065266;28;20115;-78
2021/08/02 04:10:27;;;;;;;4.85;1.20;;;12.70;99.90;;;;;;5067062;28;20068;-78
2021/08/02 04:12:54;;;;;;;2.97;1.17;;;12.70;99.90;;;;;;5068454;28;20048;-78
2021/08/02 04:15:20;;;;;;;5.93;1.17;;;12.70;99.90;;;;;;5067282;28;20398;-78
2021/08/02 04:17:45;;;;;;;6.85;1.30;;;12.70;99.90;;;;;;5067189;28;20036;-78
2021/08/02 04:20:14;;;;;;;9.07;1.75;;;12.70;99.90;;;;;;5064947;28;20053;-78
2021/08/02 04:22:40;;;;;;;6.15;1.38;;;12.60;99.90;;;;;;5066240;28;20037;-78
2021/08/02 04:25:07;;;;;;;4.88;1.65;;;12.50;99.90;;;;;;5067728;28;20474;-78
2021/08/02 04:27:33;;;;;;;9.23;2.22;;;12.70;99.90;;;;;;5064155;28;20087;-78
2021/08/02 04:29:58;;;;;;;4.80;1.20;;;12.70;99.90;;;;;;5059679;28;20048;-78
2021/08/02 04:32:24;;;;;;;6.40;1.80;;;12.70;99.90;;;;;;5067019;28;20411;-78
2021/08/02 04:34:50;;;;;;;5.40;1.85;;;12.60;99.90;;;;;;5068452;28;20048;-78
2021/08/02 04:37:15;;;;;;;6.18;1.77;;;12.70;99.90;;;;;;5066478;28;20048;-78
2021/08/02 04:39:41;;;;;;;8.70;1.70;;;12.70;99.90;;;;;;5067685;28;20093;-78
2021/08/02 04:42:07;;;;;;;4.22;1.45;;;12.70;99.90;;;;;;5064687;28;20041;-78
2021/08/02 04:44:33;;;;;;;3.70;1.63;;;12.80;99.90;;;;;;5067182;28;20048;-78
2021/08/02 04:46:59;;;;;;;4.53;1.33;;;12.80;99.90;;;;;;5067933;28;20051;-78
2021/08/02 04:49:25;;;;;;;4.50;1.60;;;12.90;99.90;;;;;;5069287;28;20044;-78
2021/08/02 04:51:50;;;;;;;5.18;1.88;;;13.00;99.90;;;;;;5066166;28;20045;-78
2021/08/02 04:54:16;;;;;;;6.18;1.73;;;13.10;99.90;;;;;;5066365;28;20033;-78
2021/08/02 04:56:42;;;;;;;5.15;1.20;;;13.30;99.90;;;;;;5066473;28;20066;-78
2021/08/02 04:59:08;;;;;;;8.85;1.25;;;13.40;99.90;;;;;;5067037;28;20033;-79
2021/08/02 05:01:34;;;;;;;5.10;1.23;;;13.50;99.90;;;;;;5063484;28;20067;-79
2021/08/02 05:03:59;;;;;;;2.97;1.10;;;13.60;99.90;;;;;;5065399;28;20482;-78
2021/08/02 05:06:25;;;;;;;3.80;1.08;;;13.80;99.90;;;;;;5065690;28;20036;-79
2021/08/02 05:08:51;;;;;;;6.18;1.38;;;13.90;99.90;;;;;;5066961;28;20502;-79
2021/08/02 05:11:17;;;;;;;5.85;1.20;;;14.00;99.90;;;;;;5066204;28;20040;-79
2021/08/02 05:13:43;;;;;;;3.17;1.00;;;14.20;99.90;;;;;;5067545;28;20078;-79
2021/08/02 05:16:10;;;;;;;2.33;0.75;;;14.40;99.90;;;;;;5066858;28;20036;-79
2021/08/02 05:18:35;;;;;;;6.22;1.20;;;14.60;99.90;;;;;;5065441;28;20049;-79
2021/08/02 05:21:02;;;;;;;6.60;1.92;;;14.60;99.90;;;;;;5064510;28;20038;-79
2021/08/02 05:23:27;;;;;;;5.05;1.17;;;14.60;99.90;;;;;;5063472;28;20048;-79
2021/08/02 05:25:53;;;;;;;8.10;1.20;;;14.60;99.90;;;;;;5063180;28;20048;-79
2021/08/02 05:28:20;;;;;;;5.50;1.30;;;14.60;99.90;;;;;;5061677;28;20534;-79
2021/08/02 05:30:47;;;;;;;5.28;1.52;;;14.90;99.90;;;;;;5064508;28;20471;-79
2021/08/02 05:33:14;;;;;;;4.18;0.88;;;15.90;99.90;;;;;;5062957;28;20071;-80
2021/08/02 05:35:39;;;;;;;4.28;0.90;;;17.70;99.90;;;;;;5062848;28;20097;-79
2021/08/02 05:38:05;;;;;;;2.65;0.73;;;19.40;99.90;;;;;;5063044;28;20036;-79
2021/08/02 05:40:31;;;;;;;6.97;1.17;;;21.10;99.90;;;;;;5063713;28;20032;-79
2021/08/02 05:42:57;;;;;;;3.28;0.60;;;22.60;99.90;;;;;;5062927;28;20043;-80
2021/08/02 05:45:23;;;;;;;3.10;0.73;;;23.80;99.90;;;;;;5062515;28;20043;-79
2021/08/02 05:47:50;;;;;;;5.38;0.60;;;24.80;95.70;;;;;;5063548;28;20108;-80
2021/08/02 05:50:15;;;;;;;7.60;1.17;;;25.70;92.50;;;;;;5064027;28;20086;-80
2021/08/02 05:52:42;;;;;;;4.07;0.73;;;26.50;90.40;;;;;;5065136;28;20044;-80
2021/08/02 05:55:09;;;;;;;5.38;1.02;;;27.10;84.50;;;;;;5065752;28;20040;-80
2021/08/02 05:57:34;;;;;;;5.75;1.60;;;27.70;77.20;;;;;;5082204;28;20206;-79
2021/08/02 06:00:00;;;;;;;5.72;1.08;;;28.60;74.10;;;;;;5064863;28;20546;-80
2021/08/02 06:02:26;;;;;;;3.45;1.10;;;29.30;69.20;;;;;;5067024;28;20082;-79
2021/08/02 06:04:52;;;;;;;6.13;1.08;;;30.10;65.80;;;;;;5072418;28;20028;-79
2021/08/02 06:07:18;;;;;;;3.33;1.00;;;30.80;60.60;;;;;;5064039;28;20036;-80
2021/08/02 06:09:44;;;;;;;3.60;0.80;;;31.20;57.50;;;;;;5060679;28;20479;-80
2021/08/02 06:12:24;;;;;;;4.05;1.02;;;31.20;56.10;;;;;;5059939;28;20059;-79
2021/08/02 06:14:55;;;;;;;2.80;0.68;;;30.50;56.80;;;;;;5062632;28;20060;-80
2021/08/02 06:17:21;;;;;;;3.88;0.95;;;29.80;57.40;;;;;;5060971;28;20068;-79
2021/08/02 06:19:47;;;;;;;2.58;0.70;;;29.00;58.00;;;;;;5059777;28;20037;-79
2021/08/02 06:22:13;;;;;;;3.22;0.70;;;28.50;59.50;;;;;;5061328;28;20122;-79
2021/08/02 06:24:39;;;;;;;3.15;0.88;;;27.90;61.00;;;;;;5063834;28;20045;-79
2021/08/02 06:27:05;;;;;;;4.30;0.63;;;27.60;60.70;;;;;;5065185;28;20117;-79
2021/08/02 06:29:35;;;;;;;2.88;0.80;;;27.10;62.10;;;;;;5063854;28;20093;-79
2021/08/02 06:32:01;;;;;;;4.88;1.20;;;26.80;63.30;;;;;;5062090;28;20052;-78
2021/08/02 06:34:38;;;;;;;4.03;1.08;;;26.50;64.20;;;;;;5064512;28;20040;-78
2021/08/02 06:37:04;;;;;;;8.48;1.17;;;26.20;65.50;;;;;;5066918;28;20041;-79
2021/08/02 06:39:30;;;;;;;3.97;0.82;;;26.10;66.50;;;;;;5065387;28;20044;-78
2021/08/02 06:41:56;;;;;;;7.28;1.23;;;25.90;64.50;;;;;;5061472;28;20093;-79
2021/08/02 06:44:22;;;;;;;7.88;1.08;;;25.80;65.90;;;;;;5062539;28;20039;-79
2021/08/02 06:46:47;;;;;;;2.45;0.70;;;25.50;66.00;;;;;;5063024;28;20064;-78
2021/08/02 06:49:13;;;;;;;3.97;1.35;;;25.20;66.90;;;;;;5063168;28;20036;-78
2021/08/02 06:51:39;;;;;;;5.63;0.88;;;25.00;68.90;;;;;;5064619;28;20713;-77
2021/08/02 06:54:05;;;;;;;4.93;0.85;;;24.90;70.80;;;;;;5063695;28;20075;-78
2021/08/02 06:56:30;;;;;;;5.88;0.70;;;24.80;70.70;;;;;;5062482;28;20045;-77
2021/08/02 06:58:56;;;;;;;2.45;1.00;;;24.80;69.90;;;;;;5062031;28;20161;-78
2021/08/02 07:01:22;;;;;;;3.83;0.88;;;24.80;69.70;;;;;;5063453;28;20041;-77
2021/08/02 07:03:48;;;;;;;4.95;0.68;;;24.60;70.00;;;;;;5062062;28;20041;-78
2021/08/02 07:06:13;;;;;;;2.85;0.50;;;24.50;72.80;;;;;;5063008;28;20044;-78
2021/08/02 07:08:39;;;;;;;2.92;0.65;;;24.60;73.70;;;;;;5064035;28;20040;-78
2021/08/02 07:11:06;;;;;;;5.30;0.68;;;24.30;74.20;;;;;;5061901;28;20063;-78
2021/08/02 07:13:33;;;;;;;4.55;0.70;;;24.10;73.40;;;;;;5059317;28;20044;-77
2021/08/02 07:16:00;;;;;;;5.50;1.00;;;23.80;74.60;;;;;;5061496;28;20056;-78
2021/08/02 07:18:33;;;;;;;10.85;0.82;;;23.40;76.90;;;;;;5065429;28;20028;-77
2021/08/02 07:20:59;;;;;;;2.90;0.65;;;23.00;79.00;;;;;;5062405;28;20028;-77
2021/08/02 07:23:25;;;;;;;7.25;0.60;;;22.50;81.20;;;;;;5060647;28;20045;-77
2021/08/02 07:25:51;;;;;;;6.97;0.88;;;22.40;88.00;;;;;;5063216;28;20117;-77
2021/08/02 07:28:17;;;;;;;3.08;0.80;;;22.20;90.80;;;;;;5063256;28;20052;-77
2021/08/02 07:30:42;;;;;;;3.88;0.70;;;22.00;89.20;;;;;;5060539;28;20696;-77
2021/08/02 07:33:08;;;;;;;6.45;1.00;;;21.80;90.40;;;;;;5054119;28;20046;-77
2021/08/02 07:35:34;;;;;;;6.38;0.80;;;21.60;90.10;;;;;;5062191;28;20066;-77
2021/08/02 07:38:00;;;;;;;5.38;1.00;;;21.50;92.30;;;;;;5055532;28;20478;-76
2021/08/02 07:40:26;;;;;;;4.20;0.70;;;21.30;94.10;;;;;;5055888;28;20040;-77
2021/08/02 07:42:52;;;;;;;5.95;0.90;;;21.20;95.00;;;;;;5053619;28;20055;-77
2021/08/02 07:45:18;;;;;;;4.55;0.82;;;21.10;96.40;;;;;;5055468;28;20044;-77
2021/08/02 07:47:43;;;;;;;6.20;0.95;;;20.90;96.70;;;;;;5054332;28;20036;-76
2021/08/02 07:50:11;;;;;;;8.43;1.00;;;20.80;96.20;;;;;;5054159;28;20086;-77
2021/08/02 07:52:37;;;;;;;4.18;1.00;;;20.60;97.30;;;;;;5058762;28;20112;-78
2021/08/02 07:55:03;;;;;;;3.90;0.95;;;20.50;97.50;;;;;;5059953;28;20048;-77
2021/08/02 07:57:32;;;;;;;4.90;0.70;;;20.40;97.80;;;;;;5060037;28;20085;-77
2021/08/02 08:00:01;;;;;;;4.95;0.80;;;20.40;98.60;;;;;;5061677;28;20028;-77
2021/08/02 08:02:27;;;;;;;7.93;0.90;;;20.30;98.00;;;;;;5062410;28;20063;-77
2021/08/02 08:04:52;;;;;;;7.28;1.08;;;20.20;97.80;;;;;;5061066;28;20049;-77
2021/08/02 08:07:18;;;;;;;7.43;1.55;;;20.20;97.40;;;;;;5064153;28;20479;-77
2021/08/02 08:09:44;;;;;;;6.60;1.23;;;20.10;98.20;;;;;;5062316;28;20047;-76
2021/08/02 08:12:09;;;;;;;6.18;0.85;;;20.30;97.90;;;;;;5060758;28;20123;-77
2021/08/02 08:14:35;;;;;;;6.88;0.70;;;20.70;97.60;;;;;;5061236;28;20060;-76
2021/08/02 08:17:01;;;;;;;4.93;0.82;;;21.20;97.00;;;;;;5061309;28;21199;-77
2021/08/02 08:19:27;;;;;;;6.68;0.75;;;21.50;95.50;;;;;;5059393;28;20036;-77
2021/08/02 08:21:53;;;;;;;4.75;0.57;;;22.00;94.70;;;;;;5063254;28;20044;-77
2021/08/02 08:24:19;;;;;;;4.47;0.70;;;22.50;93.20;;;;;;5063046;28;20182;-77
2021/08/02 08:26:44;;;;;;;2.20;0.68;;;22.50;91.10;;;;;;5061151;28;20044;-77
2021/08/02 08:29:10;;;;;;;8.15;1.38;;;22.50;91.70;;;;;;5061519;28;20128;-77
2021/08/02 08:31:36;;;;;;;4.03;1.05;;;22.40;90.20;;;;;;5059440;28;20064;-77
2021/08/02 08:34:03;;;;;;;3.80;0.68;;;22.40;90.60;;;;;;5060781;28;20032;-77
2021/08/02 08:36:29;;;;;;;7.10;1.25;;;22.40;87.50;;;;;;5062564;28;20466;-77
2021/08/02 08:38:55;;;;;;;4.53;0.70;;;22.30;90.60;;;;;;5061288;28;20047;-76
2021/08/02 08:41:22;;;;;;;6.55;0.95;;;22.40;90.50;;;;;;5062211;28;20040;-76
2021/08/02 08:43:54;;;;;;;3.83;0.65;;;22.30;87.70;;;;;;5060265;28;20048;-76
2021/08/02 08:46:21;;;;;;;5.75;1.23;;;22.20;88.10;;;;;;5063354;28;20058;-76
2021/08/02 08:48:48;;;;;;;4.47;1.17;;;22.20;90.20;;;;;;5060936;28;20061;-76
2021/08/02 08:51:14;;;;;;;5.22;0.70;;;22.40;91.30;;;;;;5062978;28;20032;-76
2021/08/02 08:53:44;;;;;;;5.50;1.17;;;22.30;92.60;;;;;;5063031;28;20281;-76
2021/08/02 08:56:15;;;;;;;6.35;0.85;;;22.20;92.60;;;;;;5063043;28;20057;-76
2021/08/02 08:58:42;;;;;;;5.90;0.82;;;22.20;92.30;;;;;;5062816;28;20131;-76
2021/08/02 09:01:07;;;;;;;9.25;1.10;;;22.20;93.60;;;;;;5061599;28;20510;-76
2021/08/02 09:03:33;;;;;;;6.20;1.42;;;22.40;94.10;;;;;;5060847;28;20040;-76
2021/08/02 09:06:03;;;;;;;5.95;0.82;;;22.50;94.30;;;;;;5060236;28;20041;-76
2021/08/02 09:08:30;;;;;;;4.13;0.82;;;22.40;94.50;;;;;;5061812;28;20071;-76
2021/08/02 09:10:57;;;;;;;8.05;0.70;;;22.30;94.60;;;;;;5061689;28;20033;-76
2021/08/02 09:13:31;;;;;;;4.78;0.95;;;22.00;94.20;;;;;;5063013;28;20402;-76
2021/08/02 09:15:57;;;;;;;5.72;0.68;;;21.80;92.30;;;;;;5060395;28;20090;-76
2021/08/02 09:18:24;;;;;;;4.28;0.55;;;21.50;92.70;;;;;;5062484;28;20057;-77
2021/08/02 09:21:04;;;;;;;3.65;0.80;;;21.30;94.00;;;;;;5061006;28;20127;-77
2021/08/02 09:23:30;;;;;;;5.28;1.10;;;21.20;95.20;;;;;;5060439;28;20040;-76
2021/08/02 09:26:01;;;;;;;10.98;1.17;;;21.10;96.00;;;;;;5060096;28;20529;-77
2021/08/02 09:28:28;;;;;;;3.00;0.70;;;21.10;96.60;;;;;;5059253;28;20068;-77
2021/08/02 09:30:54;;;;;;;4.00;1.00;;;21.40;96.60;;;;;;5054982;28;20040;-77
2021/08/02 09:33:20;;;;;;;3.03;0.68;;;21.80;94.80;;;;;;5056216;28;20044;-77
2021/08/02 09:35:51;;;;;;;3.75;0.70;;;22.20;94.80;;;;;;5059671;28;20937;-76
2021/08/02 09:38:20;;;;;;;4.13;0.85;;;22.50;94.60;;;;;;5058022;28;20041;-76
2021/08/02 09:40:54;;;;;;;4.38;0.73;;;22.80;93.10;;;;;;5058906;28;20040;-76
2021/08/02 09:43:25;;;;;;;5.95;0.68;;;23.00;90.90;;;;;;5056668;28;20671;-76
2021/08/02 09:45:52;;;;;;;4.75;1.00;;;22.90;91.90;;;;;;5060574;28;20088;-76
2021/08/02 09:48:19;;;;;;;6.35;0.90;;;22.60;93.30;;;;;;5061073;28;20039;-76
2021/08/02 09:50:47;;;;;;;5.15;0.75;;;22.20;92.70;;;;;;5060928;28;20051;-76
2021/08/02 09:53:16;;;;;;;3.75;0.45;;;21.70;94.20;;;;;;5058864;28;20040;-76
2021/08/02 09:55:43;;;;;;;7.35;0.60;;;21.20;95.00;;;;;;5056931;28;20036;-76
2021/08/02 09:58:18;;;;;;;4.00;0.65;;;20.80;97.50;;;;;;5065099;28;20029;-76
2021/08/02 10:00:45;;;;;;;5.60;0.80;;;20.50;97.50;;;;;;5066019;28;20064;-76
2021/08/02 10:03:12;;;;;;;4.85;0.95;;;20.20;98.30;;;;;;5062159;28;20041;-76
2021/08/02 10:05:38;;;;;;;5.60;0.70;;;20.00;99.10;;;;;;5066246;28;20162;-76
2021/08/02 10:08:06;;;;;;;2.80;0.70;;;19.80;99.60;;;;;;5058788;28;20072;-76
2021/08/02 10:10:32;;;;;;;7.38;0.70;;;19.70;99.70;;;;;;5065823;28;20095;-76
2021/08/02 10:12:58;;;;;;;3.17;0.80;;;19.70;99.90;;;;;;5063517;28;20044;-76
2021/08/02 10:15:27;;;;;;;3.65;0.52;;;19.70;99.70;;;;;;5062411;28;20107;-76
2021/08/02 10:17:56;;;;;;;4.07;0.57;;;19.80;99.10;;;;;;5063969;28;20049;-76
2021/08/02 10:20:31;;;;;;;4.03;0.65;;;19.90;97.60;;;;;;5059695;28;20124;-76
2021/08/02 10:22:58;;;;;;;3.40;0.63;;;20.10;97.50;;;;;;5063104;28;20474;-76
2021/08/02 10:25:35;;;;;;;3.42;0.65;;;20.50;98.70;;;;;;5064304;28;20105;-76
2021/08/02 10:28:08;;;;;;;1.27;0.35;;;20.70;97.80;;;;;;5062963;28;20559;-76
2021/08/02 10:30:34;;;;;;;4.07;0.52;;;20.80;95.00;;;;;;5058261;28;20040;-76
2021/08/02 10:33:00;;;;;;;2.83;0.77;;;21.00;95.70;;;;;;5059070;28;22071;-76
2021/08/02 10:35:34;;;;;;;4.03;0.73;;;21.10;93.60;;;;;;5063140;28;20040;-76
2021/08/02 10:38:13;;;;;;;4.73;0.53;;;21.20;94.80;;;;;;5061761;28;20072;-76
2021/08/02 10:40:48;;;;;;;4.45;0.60;;;21.30;91.90;;;;;;5061369;28;20037;-76
2021/08/02 10:43:29;;;;;;;5.60;0.70;;;21.30;94.40;;;;;;5063092;28;20471;-76
2021/08/02 10:45:56;;;;;;;2.60;0.60;;;21.10;91.30;;;;;;5063722;28;20036;-76
2021/08/02 10:48:29;;;;;;;6.88;1.80;;;21.10;93.40;;;;;;5062754;28;20052;-76
2021/08/02 10:51:07;;;;;;;3.55;0.70;;;21.00;93.10;;;;;;5062508;28;20570;-76
2021/08/02 10:53:33;;;;;;;3.42;0.80;;;21.00;94.80;;;;;;5062889;28;20048;-76
2021/08/02 10:55:59;;;;;;;2.38;0.95;;;21.20;95.30;;;;;;5062816;28;20032;-76
2021/08/02 10:58:34;;;;;;;2.97;0.60;;;21.40;96.30;;;;;;5061435;28;20048;-76
2021/08/02 11:01:02;;;;;;;2.22;0.40;;;21.40;96.00;;;;;;5064703;28;20093;-76
2021/08/02 11:03:36;;;;;;;2.83;0.50;;;21.20;96.80;;;;;;5065897;28;20094;-76
2021/08/02 11:06:09;;;;;;;2.58;0.45;;;20.90;95.70;;;;;;5065250;28;20044;-76
2021/08/02 11:08:45;;;;;;;4.95;0.60;;;20.70;95.90;;;;;;5066044;28;20093;-83
2021/08/02 11:11:17;;;;;;;1.73;0.50;;;20.40;96.30;;;;;;5077471;28;20033;-80
2021/08/02 11:13:42;;;;;;;7.68;0.63;;;20.30;96.90;;;;;;5064019;28;20105;-76
2021/08/02 11:16:09;;;;;;;7.50;0.57;;;20.10;97.50;;;;;;5064959;28;20066;-77
2021/08/02 11:18:34;;;;;;;4.28;0.60;;;19.90;98.50;;;;;;5065902;28;20036;-77
2021/08/02 11:21:01;;;;;;;3.47;0.75;;;19.80;99.20;;;;;;5065757;28;21024;-78
2021/08/02 11:23:34;;;;;;;6.30;1.00;;;19.70;99.10;;;;;;5065966;28;20090;-79
2021/08/02 11:26:08;;;;;;;9.45;0.47;;;19.70;99.50;;;;;;5063210;28;20063;-78
2021/08/02 11:28:42;;;;;;;8.90;0.70;;;19.70;99.90;;;;;;5063471;28;20040;-79
2021/08/02 11:31:10;;;;;;;2.53;0.40;;;19.80;99.90;;;;;;5064013;28;20434;-78
2021/08/02 11:33:41;;;;;;;4.82;0.63;;;19.70;99.90;;;;;;5065946;28;20443;-79
2021/08/02 11:36:14;;;;;;;4.03;0.57;;;19.70;99.90;;;;;;5064677;28;20044;-79
2021/08/02 11:38:40;;;;;;;8.43;0.90;;;19.70;99.90;;;;;;5065011;28;20043;-79
2021/08/02 11:41:06;;;;;;;3.75;0.85;;;19.80;99.90;;;;;;5063386;28;20041;-79
2021/08/02 11:43:43;;;;;;;3.03;0.60;;;19.90;99.90;;;;;;5065600;28;20133;-79
2021/08/02 11:46:11;;;;;;;2.88;0.43;;;20.00;99.90;;;;;;5063810;28;20129;-79
2021/08/02 11:48:46;;;;;;;4.22;0.68;;;20.10;99.70;;;;;;5062569;28;20470;-79
2021/08/02 11:51:14;;;;;;;3.47;0.60;;;20.20;99.90;;;;;;5060003;28;20049;-80
2021/08/02 11:53:39;;;;;;;1.60;0.60;;;20.40;98.50;;;;;;5066127;28;20127;-78
2021/08/02 11:56:06;;;;;;;3.85;0.50;;;20.50;99.20;;;;;;5064151;28;20132;-79
2021/08/02 11:59:01;;;;;;;2.15;0.30;;;20.60;99.20;;;;;;5063456;28;20040;-78
2021/08/02 12:01:27;;;;;;;3.10;0.35;;;21.00;99.80;;;;;;5054464;28;20457;-78
2021/08/02 12:03:55;;;;;;;3.20;0.40;;;21.30;98.20;;;;;;5064335;28;20032;-78
2021/08/02 12:06:21;;;;;;;2.38;0.40;;;21.40;97.00;;;;;;5063401;28;20115;-78
2021/08/02 12:08:52;;;;;;;0.73;0.30;;;21.40;97.50;;;;;;5058226;28;20040;-78
2021/08/02 12:11:18;;;;;;;0.88;0.47;;;21.50;97.00;;;;;;5058748;28;20487;-78
2021/08/02 12:13:46;;;;;;;3.80;0.57;;;21.50;97.40;;;;;;5063722;28;20749;-78
2021/08/02 12:16:12;;;;;;;2.65;0.57;;;21.50;97.10;;;;;;5052488;28;20063;-78
2021/08/02 12:18:40;;;;;;;2.40;0.40;;;21.60;96.10;;;;;;5053313;28;20041;-78
2021/08/02 12:21:21;;;;;;;4.65;0.50;;;21.60;96.00;;;;;;5058614;28;20036;-79
2021/08/02 12:23:47;;;;;;;3.15;0.40;;;21.70;96.50;;;;;;5061380;28;20052;-78
2021/08/02 12:26:19;;;;;;;3.47;0.40;;;21.70;94.70;;;;;;5060182;28;20045;-78
2021/08/02 12:28:46;;;;;;;3.05;0.73;;;21.70;95.00;;;;;;5062104;28;20052;-78
2021/08/02 12:31:14;;;;;;;3.30;0.32;;;21.50;94.30;;;;;;5061297;28;20040;-79
2021/08/02 12:33:40;;;;;;;2.83;0.47;;;21.40;94.40;;;;;;5060582;28;20395;-79
2021/08/02 12:36:06;;;;;;;5.20;0.40;;;21.50;95.40;;;;;;5051415;28;20064;-79
2021/08/02 12:38:31;;;;;;;3.80;0.40;;;21.50;94.50;;;;;;5052514;28;20767;-79
2021/08/02 12:41:04;;;;;;;5.05;0.88;;;21.50;93.80;;;;;;5052590;28;20044;-79
2021/08/02 12:43:30;;;;;;;2.92;0.73;;;21.60;94.70;;;;;;5051322;28;20047;-79
2021/08/02 12:45:56;;;;;;;3.17;0.30;;;21.60;93.80;;;;;;5051570;28;20063;-79
2021/08/02 12:48:41;;;;;;;1.55;0.30;;;21.60;94.90;;;;;;5048452;28;20055;-79
2021/08/02 12:51:08;;;;;;;0.60;0.20;;;21.60;94.30;;;;;;5055346;28;20671;-79
2021/08/02 12:53:34;;;;;;;3.50;0.50;;;21.60;94.50;;;;;;5062651;28;20048;-79